Time;durP1;ratioP1;P1;durP2;ratioP2;P2;SDS_P1;SDS_P2;PMS_P1;PMS_P2;Temp;Humidity;BMP_temperature;BMP_pressure;BME280_temperature;BME280_humidity;BME280_pressure;Samples;Min_cycle;Max_cycle;Signal;HPM_P1;HPM_P2
2022/03/20 00:00:53;;;;;;;97.15;20.63;;;;;;;-1.73;65.55;102066.31;6005187;23;20042;-72
2022/03/20 00:03:21;;;;;;;44.17;13.85;;;;;;;-1.72;62.30;102056.59;6004056;23;20027;-72
2022/03/20 00:05:48;;;;;;;30.90;9.10;;;;;;;-1.83;65.61;102043.47;6039385;23;20038;-72
2022/03/20 00:08:15;;;;;;;35.95;11.20;;;;;;;-1.81;61.36;102044.31;5991694;23;20027;-72
2022/03/20 00:10:46;;;;;;;27.27;9.65;;;;;;;-1.87;65.10;102044.34;6017229;23;20031;-71
2022/03/20 00:13:13;;;;;;;;;;;;;;;-1.84;65.23;102046.97;5991408;23;20038;-72
2022/03/20 00:15:43;;;;;;;33.78;9.55;;;;;;;-1.95;66.22;102051.50;5991363;23;20317;-72
2022/03/20 00:18:14;;;;;;;33.88;9.00;;;;;;;-1.94;65.93;102047.94;6017550;23;20027;-72
2022/03/20 00:20:45;;;;;;;31.85;9.95;;;;;;;-2.12;67.15;102034.84;6015777;23;20096;-72
2022/03/20 00:23:12;;;;;;;35.05;10.40;;;;;;;-2.05;64.27;102033.91;6014943;23;20071;-72
2022/03/20 00:25:39;;;;;;;38.13;10.55;;;;;;;-2.04;65.25;102048.94;5967597;23;20038;-72
2022/03/20 00:28:09;;;;;;;24.65;9.98;;;;;;;-1.97;63.68;102048.00;5991878;23;20035;-72
2022/03/20 00:30:36;;;;;;;30.42;9.27;;;;;;;-2.03;64.10;102042.72;6016174;23;20023;-73
2022/03/20 00:33:02;;;;;;;31.60;10.35;;;;;;;-2.07;64.87;102041.88;5963333;23;20020;-72
2022/03/20 00:35:29;;;;;;;27.70;9.52;;;;;;;-1.81;58.61;102033.69;5964282;23;20106;-72
2022/03/20 00:37:55;;;;;;;25.55;10.40;;;;;;;-1.93;62.02;102039.13;5965192;23;20057;-71
2022/03/20 00:40:22;;;;;;;31.80;10.57;;;;;;;-1.94;60.81;102026.75;5919831;23;20330;-71
2022/03/20 00:42:47;;;;;;;49.40;15.90;;;;;;;-1.86;58.56;102022.28;5941317;23;20045;-72
2022/03/20 00:45:14;;;;;;;39.15;12.30;;;;;;;-1.93;60.91;102036.47;5961967;23;20533;-72
2022/03/20 00:47:46;;;;;;;35.58;12.95;;;;;;;-1.97;61.38;102021.50;5963062;23;20416;-71
2022/03/20 00:50:13;;;;;;;47.35;15.00;;;;;;;-2.01;62.76;102027.69;5965832;23;20023;-72
2022/03/20 00:52:41;;;;;;;36.83;14.18;;;;;;;-2.07;63.38;102033.06;5942775;23;20026;-71
2022/03/20 00:55:08;;;;;;;51.03;18.13;;;;;;;-2.11;62.61;102018.94;5942266;23;20047;-71
2022/03/20 00:57:34;;;;;;;58.17;18.65;;;;;;;-2.03;59.96;102029.47;5939434;23;20031;-72
2022/03/20 01:00:00;;;;;;;59.25;18.42;;;;;;;-2.19;63.09;102016.38;5939453;23;20158;-71
2022/03/20 01:02:26;;;;;;;58.13;19.25;;;;;;;-2.14;63.55;102023.38;5939752;23;20020;-71
2022/03/20 01:04:52;;;;;;;47.78;15.80;;;;;;;-2.10;61.31;102030.41;5986069;23;20133;-71
2022/03/20 01:07:17;;;;;;;40.75;13.35;;;;;;;-2.06;59.36;102026.84;5997641;23;20050;-71
2022/03/20 01:09:43;;;;;;;43.00;13.60;;;;;;;-2.10;61.01;102020.69;6020409;23;20027;-71
2022/03/20 01:12:10;;;;;;;45.72;14.27;;;;;;;-2.21;62.75;102012.84;6019896;23;20026;-72
2022/03/20 01:14:37;;;;;;;38.00;12.98;;;;;;;-2.20;61.42;102019.88;6018282;23;20413;-72
2022/03/20 01:17:04;;;;;;;42.40;14.07;;;;;;;-2.22;63.44;102020.81;6043503;23;20034;-71
2022/03/20 01:19:31;;;;;;;31.27;10.93;;;;;;;-2.20;61.24;102014.59;6067583;23;20261;-72
2022/03/20 01:21:59;;;;;;;36.00;10.70;;;;;;;-2.15;61.24;102021.66;6020166;23;20019;-72
2022/03/20 01:24:27;;;;;;;29.70;9.95;;;;;;;-2.21;60.15;102012.84;6042646;23;20061;-72
2022/03/20 01:26:54;;;;;;;27.08;9.18;;;;;;;-2.17;61.03;102028.72;6041302;23;20023;-71
2022/03/20 01:29:20;;;;;;;39.92;11.57;;;;;;;-2.22;63.25;102026.97;6029985;23;20038;-71
2022/03/20 01:31:45;;;;;;;24.35;9.02;;;;;;;-2.25;61.83;102021.69;6041124;23;20167;-72
2022/03/20 01:34:12;;;;;;;24.77;7.85;;;;;;;-2.22;60.16;102016.38;6029082;23;20042;-72
2022/03/20 01:36:38;;;;;;;27.40;9.50;;;;;;;-2.21;61.71;102023.44;6047040;23;20023;-72
2022/03/20 01:39:04;;;;;;;21.65;8.02;;;;;;;-2.21;60.51;102012.84;6042145;23;20496;-71
2022/03/20 01:41:29;;;;;;;28.58;9.48;;;;;;;-2.26;60.67;102017.31;6041766;23;20027;-71
2022/03/20 01:44:00;;;;;;;30.42;9.57;;;;;;;-2.21;61.96;102023.44;6017687;23;20449;-71
2022/03/20 01:46:26;;;;;;;24.83;9.77;;;;;;;-2.13;61.12;102025.13;6008241;23;20051;-72
2022/03/20 01:48:53;;;;;;;30.75;9.48;;;;;;;-2.20;61.97;102009.28;5994885;23;20054;-72
2022/03/20 01:52:10;;;;;;;23.25;8.75;;;;;;;-2.10;60.12;102011.88;6018384;23;20337;-72
2022/03/20 01:54:10;;;;;;;31.17;9.70;;;;;;;-2.06;60.54;102016.25;5996075;23;20347;-73
2022/03/20 01:56:37;;;;;;;27.63;10.32;;;;;;;-2.09;61.81;102016.28;5986738;23;20074;-72
2022/03/20 01:59:04;;;;;;;32.70;10.45;;;;;;;-2.20;62.04;102001.34;5994245;23;20476;-71
2022/03/20 02:01:30;;;;;;;30.88;9.82;;;;;;;-2.17;61.84;102008.38;5994072;23;20370;-72
2022/03/20 02:03:56;;;;;;;31.10;10.18;;;;;;;-2.07;61.24;101993.31;6018055;23;20273;-71
2022/03/20 02:06:22;;;;;;;30.08;9.80;;;;;;;-1.99;60.43;102002.06;6018464;23;20109;-71
2022/03/20 02:08:48;;;;;;;34.15;11.23;;;;;;;-2.17;63.00;102000.44;5994429;23;20049;-71
2022/03/20 02:11:14;;;;;;;35.03;13.63;;;;;;;-2.13;61.02;101988.91;6017785;23;20022;-70
2022/03/20 02:13:41;;;;;;;39.72;13.82;;;;;;;-2.14;61.44;102000.41;6041248;23;20026;-70
2022/03/20 02:16:07;;;;;;;28.90;12.30;;;;;;;-2.17;62.15;102007.50;5972773;23;20094;-70
2022/03/20 02:18:33;;;;;;;31.98;11.02;;;;;;;-2.23;62.34;102006.69;6016688;23;20473;-71
2022/03/20 02:21:03;;;;;;;26.80;10.70;;;;;;;-2.25;62.16;102005.81;6040364;23;20038;-71
2022/03/20 02:23:31;;;;;;;29.60;10.13;;;;;;;-2.25;62.17;102004.94;6041868;23;20034;-71
2022/03/20 02:25:57;;;;;;;28.52;9.98;;;;;;;-2.24;63.11;102001.38;5976008;23;20053;-71
2022/03/20 02:28:23;;;;;;;26.70;9.63;;;;;;;-2.26;62.51;101997.88;6018247;23;20468;-70
2022/03/20 02:30:49;;;;;;;31.85;9.75;;;;;;;-2.29;63.42;102001.44;5994841;23;20034;-70
2022/03/20 02:33:17;;;;;;;25.80;7.93;;;;;;;-2.28;62.77;101984.63;6020055;23;20023;-70
2022/03/20 02:35:43;;;;;;;19.77;7.05;;;;;;;-2.29;63.04;101982.88;6018694;23;20098;-70
2022/03/20 02:38:10;;;;;;;20.75;7.85;;;;;;;-2.16;62.05;101982.75;5995803;23;20027;-71
2022/03/20 02:40:37;;;;;;;27.80;9.48;;;;;;;-2.15;61.96;101980.13;6017838;23;20035;-71
2022/03/20 02:43:05;;;;;;;27.50;7.80;;;;;;;-2.20;63.08;101982.78;5994901;23;20088;-70
2022/03/20 02:45:34;;;;;;;16.85;7.00;;;;;;;-2.17;61.98;101981.03;5994134;23;20341;-70
2022/03/20 02:48:04;;;;;;;21.23;7.28;;;;;;;-2.13;61.74;101982.75;6039936;23;20412;-71
2022/03/20 02:50:34;;;;;;;22.98;7.13;;;;;;;-2.15;62.31;101981.91;5993884;23;20469;-70
2022/03/20 02:53:11;;;;;;;30.60;8.05;;;;;;;-2.22;62.54;101989.88;6016452;23;20042;-69
2022/03/20 02:55:42;;;;;;;17.83;7.00;;;;;;;-2.25;62.68;101979.31;6017843;23;20023;-70
2022/03/20 02:58:10;;;;;;;22.05;7.22;;;;;;;-2.40;63.47;101963.53;6016296;23;20031;-69
2022/03/20 03:00:37;;;;;;;22.92;7.68;;;;;;;-2.33;63.47;101978.50;6018291;23;20030;-70
2022/03/20 03:03:04;;;;;;;23.33;6.65;;;;;;;-2.38;64.08;101977.63;6016508;23;20033;-70
2022/03/20 03:05:31;;;;;;;22.45;7.25;;;;;;;-2.37;63.21;101975.91;6040063;23;20457;-70
2022/03/20 03:10:56;;;;;;;20.70;7.25;;;;;;;-2.37;63.33;101974.13;6019701;23;20050;-69
2022/03/20 03:13:37;;;;;;;21.85;7.25;;;;;;;-2.36;63.62;101978.53;6017496;23;20037;-68
2022/03/20 03:16:13;;;;;;;20.85;6.93;;;;;;;-2.37;63.84;101974.13;6018054;23;20023;-68
2022/03/20 03:18:41;;;;;;;19.70;6.43;;;;;;;-2.34;62.83;101966.16;5993173;23;20434;-70
2022/03/20 03:21:11;;;;;;;26.90;7.20;;;;;;;-2.35;63.69;101976.75;6018122;23;20421;-69
2022/03/20 03:23:37;;;;;;;20.67;6.57;;;;;;;-2.36;63.41;101969.69;6017068;23;20322;-70
2022/03/20 03:26:06;;;;;;;24.88;7.55;;;;;;;-2.35;64.25;101972.31;6017036;23;20515;-70
2022/03/20 03:28:36;;;;;;;17.20;6.65;;;;;;;-2.43;64.03;101961.78;5993691;23;20031;-69
2022/03/20 03:31:06;;;;;;;23.20;6.88;;;;;;;-2.33;63.06;101969.69;5993825;23;20410;-69
2022/03/20 03:33:33;;;;;;;23.60;7.22;;;;;;;-2.34;62.98;101968.81;6016832;23;20023;-70
2022/03/20 03:35:59;;;;;;;28.38;7.28;;;;;;;-2.30;63.03;101974.97;6018756;23;20079;-69
2022/03/20 03:38:27;;;;;;;19.50;6.88;;;;;;;-2.40;63.09;101947.66;6016595;23;20023;-70
2022/03/20 03:40:56;;;;;;;38.42;8.77;;;;;;;-2.29;62.95;101958.16;6015935;23;20079;-69
2022/03/20 03:43:23;;;;;;;22.50;7.10;;;;;;;-2.30;63.10;101962.59;6064925;23;20317;-70
2022/03/20 03:45:49;;;;;;;25.27;6.63;;;;;;;-2.26;63.34;101968.75;6039156;23;20430;-70
2022/03/20 03:48:16;;;;;;;16.63;6.63;;;;;;;-2.23;63.12;101968.69;6017357;23;20171;-69
2022/03/20 03:50:43;;;;;;;24.55;7.05;;;;;;;-2.27;63.56;101973.13;6040307;23;20330;-69
2022/03/20 03:53:10;;;;;;;20.38;6.85;;;;;;;-2.28;63.06;101971.38;5993120;23;20078;-69
2022/03/20 03:55:37;;;;;;;21.77;7.68;;;;;;;-2.28;63.51;101958.13;6040651;23;20071;-70
2022/03/20 03:58:03;;;;;;;25.13;7.45;;;;;;;-2.23;63.44;101966.94;6016781;23;20398;-70
2022/03/20 04:00:32;;;;;;;21.58;7.25;;;;;;;-2.23;63.62;101961.66;5994263;23;20023;-70
2022/03/20 04:03:01;;;;;;;17.35;6.32;;;;;;;-2.21;63.76;101949.25;6017032;23;20030;-71
2022/03/20 04:05:30;;;;;;;17.10;7.43;;;;;;;-2.19;64.11;101955.44;5993657;23;20109;-70
2022/03/20 04:07:56;;;;;;;14.73;6.40;;;;;;;-2.12;63.98;101958.00;5993515;23;20055;-69
2022/03/20 04:10:23;;;;;;;18.70;6.70;;;;;;;-2.09;63.98;101956.19;6017271;23;20304;-69
2022/03/20 04:12:49;;;;;;;23.73;6.80;;;;;;;-2.10;64.38;101946.50;5993256;23;20138;-70
2022/03/20 04:15:18;;;;;;;27.63;8.10;;;;;;;-2.07;64.03;101945.59;5993296;23;20058;-70
2022/03/20 04:17:44;;;;;;;24.35;7.80;;;;;;;-2.00;63.80;101952.59;6017380;23;20023;-69
2022/03/20 04:20:14;;;;;;;23.55;8.32;;;;;;;-1.94;63.77;101941.91;5993402;23;20038;-71
2022/03/20 04:23:42;;;;;;;21.58;8.63;;;;;;;-1.91;64.19;101938.38;5995907;23;20066;-71
2022/03/20 04:25:27;;;;;;;23.33;8.50;;;;;;;-1.86;64.66;101945.41;5999954;23;20034;-70
2022/03/20 04:27:56;;;;;;;25.52;9.00;;;;;;;-1.78;63.73;101938.22;6043233;23;20034;-70
2022/03/20 04:30:25;;;;;;;29.13;10.15;;;;;;;-1.81;64.17;101943.56;6020139;23;20023;-70
2022/03/20 04:32:52;;;;;;;25.17;9.07;;;;;;;-1.71;64.26;101934.63;6043876;23;20027;-70
2022/03/20 04:35:23;;;;;;;25.63;8.75;;;;;;;-1.63;63.83;101936.31;6018840;23;20034;-70
2022/03/20 04:37:54;;;;;;;26.10;9.20;;;;;;;-1.62;63.54;101928.31;6045529;23;20027;-69
2022/03/20 04:40:20;;;;;;;26.25;8.70;;;;;;;-1.48;63.86;101938.78;5998145;23;20138;-71
2022/03/20 04:42:46;;;;;;;22.92;8.52;;;;;;;-1.31;63.35;101947.41;6018770;23;20029;-70
2022/03/20 04:45:13;;;;;;;25.60;9.48;;;;;;;-1.33;63.67;101943.88;6020382;23;20074;-70
2022/03/20 04:58:53;;;;;;;30.08;9.43;;;;;;;-0.79;63.79;101945.81;6004391;23;20033;-71
2022/03/20 05:01:20;;;;;;;32.58;9.60;;;;;;;-0.86;63.46;101930.88;6017681;23;20027;-70
2022/03/20 05:03:47;;;;;;;23.77;8.95;;;;;;;-0.65;63.84;101929.69;6041763;23;20026;-70
2022/03/20 05:06:12;;;;;;;28.50;11.00;;;;;;;-0.58;64.05;101936.66;6020257;23;20015;-71
2022/03/20 05:08:39;;;;;;;24.92;10.07;;;;;;;-0.56;63.78;101934.84;5995632;23;20130;-69
2022/03/20 05:13:50;;;;;;;28.30;9.77;;;;;;;-0.16;64.50;101923.53;6023129;23;20511;-72
2022/03/20 05:16:17;;;;;;;26.15;10.18;;;;;;;-0.03;64.52;101919.78;6023917;23;20023;-70
2022/03/20 05:18:44;;;;;;;30.80;10.43;;;;;;;0.04;64.91;101889.50;5998721;23;20046;-71
2022/03/20 05:21:10;;;;;;;22.45;8.25;;;;;;;0.44;64.29;101923.31;6020755;23;20026;-71
2022/03/20 05:23:36;;;;;;;26.02;9.48;;;;;;;0.66;63.85;101913.97;6021592;23;20022;-71
2022/03/20 05:26:02;;;;;;;28.08;9.48;;;;;;;0.77;63.76;101912.84;6018358;23;20030;-71
2022/03/20 05:28:28;;;;;;;22.20;9.23;;;;;;;0.83;63.05;101918.03;6067724;23;20496;-70
2022/03/20 05:30:55;;;;;;;28.48;9.93;;;;;;;0.88;62.50;101916.19;6050522;23;20034;-73
2022/03/20 05:33:21;;;;;;;27.55;11.20;;;;;;;0.95;61.82;101896.47;6044030;23;20027;-72
2022/03/20 05:35:48;;;;;;;23.10;9.43;;;;;;;1.15;62.10;101899.56;6021619;23;20102;-73
2022/03/20 05:38:14;;;;;;;27.83;9.27;;;;;;;1.26;61.54;101879.78;6022484;23;20075;-72
2022/03/20 05:40:41;;;;;;;23.88;8.93;;;;;;;1.47;61.47;101887.25;6044709;23;20023;-72
2022/03/20 05:43:10;;;;;;;24.85;10.15;;;;;;;1.78;60.60;101899.78;6043332;23;20028;-72
2022/03/20 05:45:39;;;;;;;23.20;9.77;;;;;;;3.52;56.15;101877.72;5996720;23;20038;-74
2022/03/20 05:48:05;;;;;;;23.35;8.88;;;;;;;5.13;51.65;101869.97;5999290;23;20410;-72
2022/03/20 05:50:31;;;;;;;27.42;9.52;;;;;;;6.12;48.66;101877.47;5997328;23;20026;-74
2022/03/20 05:52:57;;;;;;;20.08;8.18;;;;;;;7.27;47.40;101875.66;5996124;23;20034;-73
2022/03/20 05:58:01;;;;;;;21.60;7.88;;;;;;;8.04;44.44;101874.47;5994924;23;20049;-73
2022/03/20 05:58:13;;;;;;;17.15;8.32;;;;;;;8.77;42.29;101866.97;6044712;23;20034;-70
2022/03/20 06:00:41;;;;;;;21.98;7.90;;;;;;;8.80;42.09;101829.91;6019323;23;20091;-68
2022/03/20 06:03:11;;;;;;;17.27;7.57;;;;;;;9.25;41.80;101860.66;6041028;23;20023;-75
2022/03/20 06:05:38;;;;;;;17.40;7.72;;;;;;;9.90;40.63;101866.66;6047690;23;20022;-72
2022/03/20 06:08:05;;;;;;;18.30;7.43;;;;;;;10.24;39.54;101864.66;6016560;23;20096;-71
2022/03/20 06:10:32;;;;;;;18.15;7.47;;;;;;;10.62;40.25;101866.81;6042909;23;20125;-74
2022/03/20 06:13:00;;;;;;;16.30;6.57;;;;;;;11.21;39.10;101862.06;6016829;23;20085;-71
2022/03/20 06:18:04;;;;;;;22.27;7.25;;;;;;;11.69;36.36;101846.22;6073810;23;20089;-75
2022/03/20 06:20:34;;;;;;;16.75;6.63;;;;;;;12.35;36.01;101846.22;6020452;23;20042;-74
2022/03/20 06:23:00;;;;;;;;;;;;;;;12.44;35.55;101854.59;6021607;23;20049;-74
2022/03/20 06:25:26;;;;;;;17.67;6.43;;;;;;;12.78;34.67;101836.72;6023697;23;20356;-75
2022/03/20 06:31:13;;;;;;;19.88;7.68;;;;;;;13.28;34.28;101812.28;6074854;23;20078;-73
2022/03/20 06:33:40;;;;;;;16.40;7.22;;;;;;;13.77;34.28;101823.97;6003472;23;20023;-73
2022/03/20 06:36:07;;;;;;;14.23;6.38;;;;;;;14.06;35.22;101836.16;6001200;23;20453;-76
2022/03/20 06:38:36;;;;;;;12.90;6.35;;;;;;;13.77;35.07;101830.28;6051273;23;20031;-75
2022/03/20 06:41:04;;;;;;;17.80;6.55;;;;;;;14.07;32.75;101829.72;6041486;23;20026;-72
2022/03/20 06:43:30;;;;;;;19.27;6.53;;;;;;;14.17;31.60;101808.97;6041156;23;20034;-76
2022/03/20 06:45:57;;;;;;;15.77;6.15;;;;;;;14.73;33.15;101807.28;6029426;23;20108;-72
2022/03/20 06:48:27;;;;;;;20.67;6.25;;;;;;;14.99;32.00;101792.41;6045590;23;20041;-68
2022/03/20 06:50:53;;;;;;;46.25;7.30;;;;;;;14.87;31.60;101816.06;6017918;23;20082;-71
2022/03/20 06:53:20;;;;;;;13.45;6.07;;;;;;;14.11;31.42;101754.19;6017302;23;20106;-71
2022/03/20 06:55:46;;;;;;;15.88;6.20;;;;;;;15.77;30.34;101814.97;6038940;23;20031;-71
2022/03/20 06:58:17;;;;;;;17.33;5.68;;;;;;;15.14;30.28;101802.03;6038042;23;20023;-71
2022/03/20 07:00:44;;;;;;;16.30;5.85;;;;;;;15.54;31.06;101820.47;6042242;23;20121;-72
2022/03/20 07:03:10;;;;;;;13.77;5.60;;;;;;;15.38;31.09;101804.53;6022068;23;20114;-73
2022/03/20 07:05:37;;;;;;;18.20;5.97;;;;;;;15.06;30.86;101809.09;6023448;23;20034;-73
2022/03/20 07:08:05;;;;;;;18.88;6.22;;;;;;;15.99;29.92;101813.97;6015391;23;20437;-71
2022/03/20 07:10:31;;;;;;;13.40;5.95;;;;;;;15.50;29.41;101797.19;6034515;23;20035;-72
2022/03/20 07:15:45;;;;;;;16.00;6.28;;;;;;;16.68;28.24;101806.00;6045620;23;20019;-72
2022/03/20 07:18:15;;;;;;;14.48;5.82;;;;;;;17.48;28.20;101806.91;5993155;23;20031;-73
2022/03/20 07:20:43;;;;;;;14.07;6.50;;;;;;;18.14;26.87;101796.06;6039322;23;20030;-73
2022/03/20 07:23:10;;;;;;;16.55;6.07;;;;;;;17.72;27.29;101801.84;6014552;23;20027;-72
2022/03/20 07:31:06;;;;;;;16.15;6.32;;;;;;;17.89;28.45;101792.09;6019510;23;20037;-72
2022/03/20 07:33:33;;;;;;;12.23;5.97;;;;;;;18.06;27.74;101799.56;6038236;23;20361;-73
2022/03/20 07:35:59;;;;;;;20.33;6.65;;;;;;;18.46;27.03;101784.69;5991396;23;20121;-72
2022/03/20 07:38:26;;;;;;;18.00;6.93;;;;;;;18.93;26.18;101787.38;6038463;23;20106;-73
2022/03/20 07:40:53;;;;;;;14.05;6.80;;;;;;;18.00;27.23;101782.84;6039622;23;20027;-71
2022/03/20 07:43:20;;;;;;;13.63;6.63;;;;;;;18.36;26.13;101781.16;6014900;23;20079;-72
2022/03/20 07:45:46;;;;;;;25.95;7.50;;;;;;;18.17;27.08;101775.72;6039637;23;20026;-71
2022/03/20 07:48:12;;;;;;;15.65;6.57;;;;;;;18.81;26.86;101783.16;6040118;23;20378;-73
2022/03/20 07:50:38;;;;;;;14.02;6.30;;;;;;;19.06;26.10;101769.72;6040462;23;20035;-73
2022/03/20 07:53:04;;;;;;;13.30;6.38;;;;;;;19.35;27.38;101781.34;5991871;23;20078;-72
2022/03/20 07:55:31;;;;;;;17.55;6.97;;;;;;;20.06;24.41;101779.56;5992591;23;20035;-72
2022/03/20 07:58:00;;;;;;;14.13;6.47;;;;;;;19.70;26.78;101775.00;5993869;23;20078;-74
2022/03/20 08:00:26;;;;;;;14.35;6.57;;;;;;;19.91;25.21;101768.31;6041703;23;20383;-71
2022/03/20 08:02:52;;;;;;;15.23;7.53;;;;;;;19.76;24.37;101757.03;6019143;23;20022;-72
2022/03/20 08:05:19;;;;;;;13.73;6.53;;;;;;;20.16;24.39;101759.22;6043627;23;20209;-73
2022/03/20 08:07:44;;;;;;;15.38;6.72;;;;;;;19.87;24.48;101758.66;5996499;23;20027;-73
2022/03/20 08:10:12;;;;;;;13.98;6.85;;;;;;;20.68;23.48;101731.66;6019593;23;20091;-73
2022/03/20 08:12:38;;;;;;;15.00;6.35;;;;;;;20.33;25.28;101749.19;5997434;23;20097;-72
2022/03/20 08:15:06;;;;;;;17.35;6.85;;;;;;;20.95;22.73;101744.31;6020092;23;20422;-72
2022/03/20 08:17:32;;;;;;;19.48;6.43;;;;;;;20.47;23.41;101745.81;6018321;23;20031;-72
2022/03/20 08:19:58;;;;;;;20.42;7.32;;;;;;;20.69;23.22;101740.78;6017477;23;20353;-72
2022/03/20 08:22:27;;;;;;;13.88;6.05;;;;;;;21.10;23.58;101743.66;6065210;23;20449;-72
2022/03/20 08:24:53;;;;;;;11.32;6.10;;;;;;;21.55;21.52;101732.19;6016415;23;20053;-70
2022/03/20 08:27:20;;;;;;;11.70;5.90;;;;;;;21.25;21.92;101738.34;6015960;23;20462;-70
2022/03/20 08:29:46;;;;;;;13.90;5.55;;;;;;;21.78;21.42;101726.84;6015260;23;20086;-70
2022/03/20 08:32:13;;;;;;;13.02;5.30;;;;;;;21.00;22.10;101721.81;6017716;23;20432;-71
2022/03/20 08:34:40;;;;;;;10.95;5.53;;;;;;;21.65;22.51;101718.28;6017843;23;20055;-72
2022/03/20 08:37:05;;;;;;;15.80;5.25;;;;;;;22.09;20.69;101704.94;6001807;23;20343;-72
2022/03/20 08:39:31;;;;;;;11.95;5.07;;;;;;;22.41;20.75;101713.28;6017120;23;20066;-72
2022/03/20 08:41:57;;;;;;;13.85;5.57;;;;;;;21.52;21.76;101695.91;6016004;23;20045;-71
2022/03/20 08:44:26;;;;;;;12.82;4.97;;;;;;;22.39;20.17;101697.78;6017040;23;20046;-71
2022/03/20 08:46:52;;;;;;;14.82;5.15;;;;;;;22.87;19.65;101698.56;6015308;23;20117;-73
2022/03/20 08:49:19;;;;;;;11.57;5.32;;;;;;;22.87;20.95;101682.03;6041567;23;20022;-73
2022/03/20 08:51:45;;;;;;;17.52;5.28;;;;;;;22.45;20.35;101687.97;6042431;23;20026;-73
2022/03/20 08:54:11;;;;;;;13.20;4.85;;;;;;;23.01;20.32;101682.31;6043734;23;20113;-72
2022/03/20 08:56:38;;;;;;;17.52;6.95;;;;;;;23.14;19.73;101682.56;6019840;23;20209;-72
2022/03/20 08:59:08;;;;;;;15.88;5.65;;;;;;;22.09;20.37;101688.41;5994716;23;20050;-72
2022/03/20 09:01:35;;;;;;;17.95;6.15;;;;;;;21.30;21.15;101648.75;6044530;23;20033;-72
2022/03/20 09:04:01;;;;;;;14.35;6.03;;;;;;;21.96;21.00;101676.22;6040763;23;20033;-73
2022/03/20 09:06:28;;;;;;;17.15;6.43;;;;;;;21.67;21.27;101672.13;6019034;23;20113;-72
2022/03/20 09:08:54;;;;;;;13.38;5.97;;;;;;;22.21;20.78;101669.63;6044177;23;20066;-73
2022/03/20 09:11:21;;;;;;;16.27;6.18;;;;;;;21.79;21.16;101665.25;6018078;23;20041;-72
2022/03/20 09:13:47;;;;;;;12.75;5.70;;;;;;;23.03;20.31;101663.66;5994820;23;20045;-72
2022/03/20 09:18:59;;;;;;;13.57;5.93;;;;;;;22.71;20.66;101648.19;6020052;23;20373;-72
2022/03/20 09:21:29;;;;;;;15.32;5.65;;;;;;;22.61;20.55;101653.94;5994355;23;20031;-73
2022/03/20 09:23:55;;;;;;;14.02;5.93;;;;;;;20.78;21.69;101662.81;6019893;23;20041;-72
2022/03/20 09:26:21;;;;;;;14.18;5.47;;;;;;;20.48;21.43;101648.63;5992989;23;20113;-73
2022/03/20 09:28:47;;;;;;;14.95;5.05;;;;;;;21.99;20.77;101653.84;6014180;23;20030;-72
2022/03/20 09:31:14;;;;;;;15.00;5.45;;;;;;;22.19;20.33;101655.16;6019031;23;20030;-72
2022/03/20 09:33:40;;;;;;;12.10;5.75;;;;;;;22.84;20.03;101642.91;5995944;23;20027;-72
2022/03/20 09:36:06;;;;;;;12.40;5.15;;;;;;;21.91;20.24;101647.31;5995701;23;20031;-72
2022/03/20 09:38:33;;;;;;;12.25;4.65;;;;;;;22.72;19.81;101650.75;6021135;23;20087;-72
2022/03/20 09:41:03;;;;;;;10.63;4.50;;;;;;;23.12;19.09;101632.22;6042816;23;20430;-72
2022/03/20 09:43:31;;;;;;;13.40;4.63;;;;;;;23.27;19.14;101632.28;5995553;23;20181;-73
2022/03/20 09:45:57;;;;;;;15.23;4.97;;;;;;;22.30;18.49;101609.81;5996185;23;20035;-74
2022/03/20 09:48:23;;;;;;;14.52;5.15;;;;;;;20.91;20.35;101624.69;5992182;23;20531;-72
2022/03/20 09:50:49;;;;;;;16.63;5.35;;;;;;;22.58;18.65;101612.94;6009505;23;20022;-73
2022/03/20 09:53:15;;;;;;;11.60;4.47;;;;;;;22.04;18.94;101602.66;5992824;23;20030;-72
2022/03/20 09:55:43;;;;;;;16.02;5.00;;;;;;;22.78;18.30;101600.41;5994193;23;20023;-72
2022/03/20 09:58:09;;;;;;;13.50;5.22;;;;;;;23.19;18.04;101602.84;5992159;23;20022;-72
2022/03/20 10:00:35;;;;;;;13.60;4.63;;;;;;;21.75;18.54;101606.03;6015255;23;20037;-71
2022/03/20 10:03:17;;;;;;;14.75;5.00;;;;;;;21.85;18.25;101598.44;6015501;23;20026;-71
2022/03/20 10:06:05;;;;;;;17.05;4.43;;;;;;;20.36;18.56;101592.25;6039988;23;20022;-72
2022/03/20 10:08:31;;;;;;;12.73;4.07;;;;;;;21.69;18.08;101587.50;6040569;23;20052;-72
2022/03/20 10:11:16;;;;;;;16.50;4.32;;;;;;;22.85;17.36;101582.06;5990338;23;20130;-72
2022/03/20 10:14:04;;;;;;;11.05;4.60;;;;;;;23.47;16.97;101575.47;6012360;23;20031;-72
2022/03/20 10:16:30;;;;;;;12.05;3.97;;;;;;;22.77;16.26;101573.84;6015327;23;20449;-72
2022/03/20 10:18:56;;;;;;;17.35;4.00;;;;;;;21.98;17.40;101555.72;6016923;23;20079;-72
2022/03/20 10:21:45;;;;;;;12.93;3.83;;;;;;;23.18;16.52;101559.75;6019836;23;20078;-72
2022/03/20 10:24:16;;;;;;;19.75;3.95;;;;;;;23.65;16.48;101554.91;6040959;23;20030;-72
2022/03/20 10:26:43;;;;;;;16.65;4.15;;;;;;;22.92;16.83;101545.50;6016205;23;20504;-73
2022/03/20 10:29:16;;;;;;;23.80;4.57;;;;;;;22.50;16.53;101541.31;5994932;23;20026;-72
2022/03/20 10:31:54;;;;;;;11.80;3.88;;;;;;;22.72;16.73;101531.34;5995175;23;20035;-73
2022/03/20 10:34:21;;;;;;;9.45;4.20;;;;;;;22.32;16.44;101523.19;6038209;23;20026;-72
2022/03/20 10:36:48;;;;;;;10.48;3.53;;;;;;;21.93;16.58;101534.22;6034020;23;20050;-72
2022/03/20 10:39:16;;;;;;;10.10;3.50;;;;;;;23.16;15.43;101525.09;6016877;23;20034;-72
2022/03/20 10:41:45;;;;;;;9.35;3.42;;;;;;;23.59;15.00;101521.50;6016701;23;20030;-74
2022/03/20 10:44:16;;;;;;;10.38;3.90;;;;;;;23.94;15.28;101523.69;6017964;23;20027;-73
2022/03/20 10:46:42;;;;;;;12.10;3.58;;;;;;;22.45;15.54;101510.69;5995010;23;20027;-72
2022/03/20 10:49:11;;;;;;;12.68;3.75;;;;;;;22.44;15.28;101517.25;6044718;23;20098;-74
2022/03/20 10:51:42;;;;;;;;;;;;;;;22.65;16.65;101511.91;6016305;23;20334;-73
2022/03/20 10:54:15;;;;;;;11.55;3.65;;;;;;;22.08;16.43;101498.50;6063726;23;19917;-72
2022/03/20 10:56:56;;;;;;;13.05;3.67;;;;;;;23.13;15.57;101497.88;5989128;23;20346;-73
2022/03/20 10:59:23;;;;;;;10.60;3.33;;;;;;;21.69;16.02;101482.88;6033404;23;20035;-73
2022/03/20 11:01:49;;;;;;;15.35;3.65;;;;;;;22.21;15.97;101476.75;6014243;23;20363;-72
2022/03/20 11:04:16;;;;;;;13.35;3.63;;;;;;;21.43;15.83;101483.16;5993066;23;20026;-72
2022/03/20 11:06:46;;;;;;;8.68;2.67;;;;;;;21.86;16.19;101461.59;6040090;23;20241;-72
2022/03/20 11:09:12;;;;;;;8.75;2.85;;;;;;;21.88;16.10;101482.44;6015363;23;20058;-72
2022/03/20 11:11:45;;;;;;;11.57;3.65;;;;;;;21.53;16.15;101458.16;6038333;23;20358;-72
2022/03/20 11:14:15;;;;;;;8.30;2.90;;;;;;;21.74;16.21;101469.44;6038990;23;20026;-73
2022/03/20 11:16:42;;;;;;;14.05;3.03;;;;;;;22.42;15.61;101451.28;6015236;23;20425;-72
2022/03/20 11:19:13;;;;;;;13.70;3.17;;;;;;;21.00;16.27;101460.56;6017377;23;20026;-73
2022/03/20 11:21:41;;;;;;;14.30;3.17;;;;;;;21.99;15.43;101444.50;6031517;23;20098;-72
2022/03/20 11:24:08;;;;;;;8.07;2.70;;;;;;;21.65;15.88;101440.25;6063965;23;20019;-72
2022/03/20 11:26:40;;;;;;;10.50;2.80;;;;;;;20.93;16.30;101443.88;6015311;23;20043;-74
2022/03/20 11:29:09;;;;;;;8.98;2.97;;;;;;;21.53;15.95;101439.75;5992386;23;20129;-73
2022/03/20 11:31:36;;;;;;;21.88;3.25;;;;;;;20.81;16.77;101449.94;5934736;23;1349978;-73
2022/03/20 11:34:07;;;;;;;11.15;2.38;;;;;;;20.95;15.79;101441.84;6015963;23;20026;-72
2022/03/20 11:37:00;;;;;;;10.88;2.65;;;;;;;21.59;16.77;101440.94;5979685;23;20453;-71
2022/03/20 11:39:25;;;;;;;16.30;3.17;;;;;;;21.06;16.41;101437.84;6007429;23;20476;-74
2022/03/20 11:42:26;;;;;;;7.30;2.40;;;;;;;21.19;15.92;101429.03;6018233;23;20034;-73
2022/03/20 11:45:08;;;;;;;10.10;2.42;;;;;;;21.31;16.71;101432.25;5992986;23;20162;-73
2022/03/20 11:47:42;;;;;;;8.23;2.42;;;;;;;22.04;15.46;101426.38;5994950;23;20098;-72
2022/03/20 11:50:17;;;;;;;7.40;2.47;;;;;;;21.83;15.87;101412.41;6017613;23;20264;-73
2022/03/20 11:52:44;;;;;;;;;;;;;;;22.08;15.96;101424.97;6044380;23;20023;-73
2022/03/20 11:55:24;;;;;;;11.80;3.45;;;;;;;21.97;15.40;101408.88;6019989;23;19980;-72